Data for 11/21/2014

Time Sea-Level Adjusted Pressure Absolute Pressure Temperature Relative Humidity Dew Point   
(mb) (inHg) (mb) (inHg) (C) (F) (%) (C) (F)
00:05 1015 29.97 844 24.92 2.1 35.8 60 -4.8 23.4
00:10 1015 29.97 844 24.92 2 35.7 61 -4.8 23.4
00:15 1015 29.97 844 24.92 2 35.5 62 -4.6 23.8
00:20 1015 29.97 844 24.92 1.9 35.4 62 -4.6 23.7
00:25 1015 29.97 844 24.92 1.9 35.3 62 -4.6 23.7
00:30 1015 29.97 844 24.92 1.7 35.1 63 -4.6 23.7
00:35 1015 29.97 844 24.92 1.6 34.9 65 -4.3 24.3
00:40 1015 29.97 844 24.92 1.5 34.7 64 -4.6 23.6
00:45 1015 29.97 844 24.92 1.3 34.4 65 -4.6 23.7
00:50 1015 29.97 844 24.92 1.1 33.9 66 -4.6 23.7
00:55 1015 29.97 844 24.92 0.8 33.4 67 -4.8 23.4
01:00 1015 29.97 844 24.92 0.8 33.5 66 -4.9 23.2
01:05 1015 29.97 844 24.92 1 33.9 64 -4.9 23.1
01:10 1015 29.97 844 24.92 1.2 34.1 63 -5.1 22.9
01:15 1015 29.97 844 24.92 1.3 34.4 63 -4.9 23.2
01:20 1015 29.97 844 24.92 1.4 34.6 62 -5.2 22.7
01:25 1015 29.97 844 24.92 1.4 34.5 62 -5.1 22.8
01:30 1015 29.97 844 24.92 1.4 34.5 62 -5.1 22.9
01:35 1015 29.97 844 24.92 0.9 33.6 66 -4.6 23.6
01:40 1015 29.97 844 24.92 0.3 32.6 69 -4.7 23.5
01:45 1015 29.97 844 24.92 0.2 32.3 66 -5.4 22.3
01:50 1015 29.97 844 24.92 0.8 33.5 66 -4.8 23.4
01:55 1015 29.97 844 24.92 0.7 33.2 67 -4.7 23.6
02:00 1015 29.97 844 24.92 0.5 32.8 67 -5 23.1
02:05 1015 29.97 844 24.92 -0.4 31.4 75 -4.2 24.4
02:10 1015 29.97 844 24.92 -0.1 31.9 70 -5 23.1
02:15 1015 29.97 844 24.92 -0.1 31.9 68 -5.3 22.5
02:20 1015 29.97 844 24.92 0.4 32.8 65 -5.5 22.2
02:25 1015 29.97 844 24.92 0.6 33.1 66 -4.9 23.2
02:30 1015 29.97 844 24.92 0.2 32.4 69 -4.8 23.3
02:35 1015 29.97 844 24.92 -0.1 31.9 68 -5.3 22.5
02:40 1015 29.97 844 24.92 0.7 33.2 65 -5.2 22.7
02:45 1015 29.97 844 24.92 0.7 33.2 67 -4.7 23.5
02:50 1015 29.97 844 24.92 0.3 32.6 69 -4.6 23.7
02:55 1015 29.97 844 24.92 -0.7 30.8 73 -5 23
03:00 1015 29.97 844 24.92 -1 30.2 74 -5.1 22.8
03:05 1015 29.97 844 24.92 -1.3 29.7 75 -5.1 22.8
03:10 1015 29.97 844 24.92 -1.2 29.8 74 -5.2 22.6
03:15 1015 29.97 844 24.92 -0.7 30.7 71 -5.4 22.3
03:20 1015 29.97 844 24.92 -0.7 30.8 71 -5.2 22.6
03:25 1015 29.97 844 24.92 -0.6 31 71 -5.1 22.7
03:30 1015 29.97 844 24.92 -0.8 30.6 73 -5 22.9
03:35 1015 29.97 844 24.92 -0.3 31.4 69 -5.3 22.4
03:40 1015 29.97 844 24.92 -0.4 31.4 69 -5.4 22.4
03:45 1015 29.97 844 24.92 0.1 32.2 64 -5.8 21.5
03:50 1015 29.97 844 24.92 0.7 33.3 64 -5.2 22.6
03:55 1015 29.97 844 24.92 -0.1 31.8 69 -5 23
04:00 1015 29.97 844 24.92 -0.6 31 71 -5.2 22.6
04:05 1015 29.97 844 24.92 -0.7 30.8 70 -5.5 22.2
04:10 1015 29.97 844 24.92 -0.5 31 70 -5.3 22.5
04:15 1015 29.97 844 24.92 -0.8 30.5 69 -5.8 21.6
04:20 1015 29.97 844 24.92 -0.3 31.5 67 -5.6 21.8
04:25 1015 29.97 844 24.92 0.2 32.3 65 -5.6 22
04:30 1015 29.97 844 24.92 -0.6 30.9 69 -5.5 22
04:35 1015 29.97 844 24.92 -0.8 30.5 69 -5.8 21.5
04:40 1015 29.97 844 24.92 -0.9 30.4 70 -5.7 21.8
04:45 1015 29.97 844 24.92 -1.3 29.6 72 -5.7 21.8
04:50 1015 29.97 844 24.92 -1.3 29.7 72 -5.7 21.7
04:55 1015 29.97 844 24.92 -1.5 29.4 72 -5.9 21.3
05:00 1015 29.97 844 24.92 -1.6 29.1 72 -5.9 21.3
05:05 1015 29.97 844 24.92 -1.5 29.3 72 -5.9 21.4
05:10 1015 29.97 844 24.92 -1.5 29.4 73 -5.7 21.8
05:15 1015 29.97 844 24.92 -1.2 29.8 71 -5.8 21.6
05:20 1015 29.97 844 24.92 -1.1 30.1 71 -5.8 21.6
05:25 1015 29.97 844 24.92 -1.4 29.5 71 -6 21.2
05:30 1015 29.97 844 24.92 -1.6 29.2 72 -6 21.1
05:35 1015 29.97 844 24.92 -1.7 28.9 72 -6.1 21.1
05:40 1015 29.97 844 24.92 -1.5 29.3 71 -6 21.1
05:45 1015 29.97 844 24.92 -1.4 29.4 73 -5.7 21.7
05:50 1015 29.97 844 24.92 -1.4 29.5 75 -5.2 22.6
05:55 1015 29.97 844 24.92 -1.1 30 70 -6 21.2
06:00 1015 29.97 844 24.92 -1.3 29.6 70 -6.1 21.1
06:05 1015 29.97 844 24.92 -1.5 29.3 70 -6.2 20.8
06:10 1015 29.97 844 24.92 -1.6 29.1 71 -6.2 20.9
06:15 1015 29.97 844 24.92 -1.4 29.5 68 -6.6 20.2
06:20 1015 29.97 844 24.92 -1.1 30 69 -6.2 20.9
06:25 1015 29.97 844 24.92 -1.8 28.8 71 -6.4 20.4
06:30 1015 29.97 844 24.92 -2.3 27.9 72 -6.7 19.9
06:35 1015 29.97 844 24.92 -2.3 27.9 72 -6.7 20
06:40 1015 29.97 844 24.92 -2 28.4 70 -6.7 19.9
06:45 1015 29.97 844 24.92 -1.8 28.7 70 -6.5 20.3
06:50 1015 29.97 844 24.92 -2.1 28.3 71 -6.6 20
06:55 1015 29.97 844 24.92 -2.6 27.3 73 -6.7 19.9
07:00 1015 29.97 844 24.92 -2.8 27 74 -6.9 19.6
07:05 1015 29.97 844 24.92 -2.5 27.5 71 -7 19.4
07:10 1015 29.97 844 24.92 -2.2 28.1 71 -6.7 19.9
07:15 1015 29.97 844 24.92 -2 28.3 70 -6.7 19.9
07:20 1015 29.97 844 24.92 -2 28.4 70 -6.7 20
07:25 1015 29.97 844 24.92 -2 28.4 70 -6.8 19.8
07:30 1015 29.97 844 24.92 -2 28.5 70 -6.7 19.9
07:35 1015 29.97 844 24.92 -2.1 28.2 71 -6.7 20
07:40 1015 29.97 844 24.92 -2.2 28 72 -6.7 19.9
07:45 1015 29.97 844 24.92 -2.4 27.7 72 -6.8 19.7
07:50 1015 29.97 844 24.92 -1.9 28.5 69 -6.8 19.8
07:55 1015 29.97 844 24.92 -2.1 28.2 72 -6.6 20.2
08:00 1015 29.97 844 24.92 -2.7 27.2 73 -6.9 19.5
08:05 1015 29.97 844 24.92 -2.9 26.8 74 -7 19.4
08:10 1015 29.97 844 24.92 -2.5 27.4 72 -7 19.5
08:15 1015 29.97 844 24.92 -2.4 27.7 72 -6.8 19.7
08:20 1015 29.97 844 24.92 -2.4 27.7 72 -6.8 19.8
08:25 1015 29.97 844 24.92 -2 28.4 70 -6.7 19.9
08:30 1015 29.97 844 24.92 -1.3 29.6 65 -7 19.4
08:35 1015 29.97 844 24.92 -0.9 30.4 65 -6.6 20.1
08:40 1015 29.97 844 24.92 -1 30.3 65 -6.7 20
08:45 1015 29.97 844 24.92 -0.7 30.7 66 -6.3 20.7
08:50 1015 29.97 844 24.92 -0.7 30.8 65 -6.5 20.3
08:55 1015 29.97 844 24.92 -0.7 30.7 65 -6.4 20.4
09:00 1015 29.97 844 24.92 -1.1 30 67 -6.5 20.4
09:05 1015 29.97 844 24.92 -1.6 29.1 68 -6.7 20
09:10 1015 29.97 844 24.92 -1.5 29.2 68 -6.7 19.9
09:15 1015 29.97 844 24.92 -1.3 29.6 67 -6.6 20.1
09:20 1015 29.97 844 24.92 -1.3 29.7 67 -6.6 20.1
09:25 1015 29.97 844 24.92 -0.6 30.9 63 -6.8 19.7
09:30 1015 29.97 844 24.92 0.2 32.4 61 -6.5 20.4
09:35 1015 29.97 844 24.92 0.7 33.3 60 -6.2 20.8
09:40 1015 29.97 844 24.92 0.6 33.1 61 -6.1 21
09:45 1015 29.97 844 24.92 0.3 32.5 62 -6.1 21.1
09:50 1015 29.97 844 24.92 0.6 33.1 59 -6.5 20.3
09:55 1015 29.97 844 24.92 1 33.8 58 -6.3 20.7
10:00 1015 29.97 844 24.92 1.2 34.1 57 -6.5 20.3
10:05 1015 29.97 844 24.92 1.5 34.7 57 -6 21.2
10:10 1015 29.97 844 24.92 1.6 35 56 -6.2 20.9
10:15 1015 29.97 844 24.92 2.2 35.9 54 -6.1 20.9
10:20 1015 29.97 844 24.92 2.4 36.3 56 -5.4 22.3
10:25 1015 29.97 844 24.92 2.1 35.8 58 -5.2 22.6
10:30 1015 29.97 844 24.92 2 35.6 60 -4.9 23.2
10:35 1015 29.97 844 24.92 1.8 35.3 58 -5.5 22.2
10:40 1015 29.97 844 24.92 2.1 35.7 59 -5.1 22.9
10:45 1015 29.97 844 24.92 2 35.7 61 -4.8 23.4
10:50 1015 29.97 844 24.92 1.8 35.2 62 -4.8 23.4
10:55 1015 29.97 844 24.92 1.7 35.1 61 -5.1 22.9
11:00 1015 29.97 844 24.92 1.7 35.1 60 -5.3 22.4
11:05 1015 29.97 844 24.92 1.8 35.3 59 -5.3 22.5
11:10 1015 29.97 844 24.92 2 35.5 58 -5.5 22.1
11:15 1015 29.97 844 24.92 2 35.7 58 -5.4 22.3
11:20 1015 29.97 844 24.92 2.3 36.1 57 -5.4 22.3
11:25 1015 29.97 844 24.92 2.6 36.7 57 -5.2 22.7
11:30 1015 29.97 844 24.92 2.7 36.9 57 -4.9 23.2
11:35 1015 29.97 844 24.92 2.6 36.7 56 -5.3 22.4
11:40 1015 29.97 844 24.92 2.4 36.3 57 -5.3 22.5
11:45 1015 29.97 844 24.92 2.4 36.3 56 -5.5 22.1
11:50 1015 29.97 844 24.92 2.8 37 54 -5.5 22.1
11:55 1015 29.97 844 24.92 3.3 38 54 -5 22.9
12:00 1015 29.97 844 24.92 3.9 39 50 -5.5 22.2
12:05 1015 29.97 844 24.92 4.5 40.1 48 -5.5 22.2
12:10 1015 29.97 844 24.92 4.7 40.5 48 -5.4 22.2
12:15 1015 29.97 844 24.92 4.7 40.5 49 -5 23
12:20 1015 29.97 844 24.92 4.5 40.1 49 -5.3 22.4
12:25 1014 29.94 844 24.92 4.7 40.5 48 -5.4 22.2
12:30 1014 29.94 843 24.89 4.7 40.5 49 -5.2 22.7
12:35 1014 29.94 843 24.89 4.9 40.8 49 -5 23
12:40 1014 29.94 843 24.89 4.8 40.7 48 -5.2 22.7
12:45 1014 29.94 843 24.89 5 40.9 48 -5.1 22.8
12:50 1014 29.94 843 24.89 5.1 41.2 47 -5.3 22.4
12:55 1014 29.94 843 24.89 5.1 41.3 45 -5.7 21.7
13:00 1014 29.94 843 24.89 5.3 41.5 47 -5.2 22.6
13:05 1014 29.94 843 24.89 5 41 48 -5.2 22.7
13:10 1014 29.94 843 24.89 5.2 41.4 45 -5.6 21.8
13:15 1014 29.94 843 24.89 5.2 41.4 47 -5.3 22.5
13:20 1014 29.94 843 24.89 6.1 42.9 43 -5.6 21.9
13:25 1014 29.94 843 24.89 6.4 43.4 45 -4.7 23.5
13:30 1014 29.94 843 24.89 6.4 43.5 44 -5.1 22.7
13:35 1014 29.94 843 24.89 6.5 43.6 44 -4.9 23.2
13:40 1014 29.94 843 24.89 6.5 43.7 44 -5 23
13:45 1014 29.94 843 24.89 6.4 43.6 43 -5.1 22.8
13:50 1014 29.94 843 24.89 6.5 43.8 45 -4.6 23.7
13:55 1014 29.94 843 24.89 6.3 43.4 45 -4.6 23.6
14:00 1014 29.94 843 24.89 6.1 43 47 -4.3 24.3
14:05 1014 29.94 843 24.89 5.9 42.6 47 -4.5 23.9
14:10 1014 29.94 843 24.89 5.7 42.2 48 -4.5 24
14:15 1013 29.91 843 24.89 5.4 41.7 49 -4.4 24
14:20 1013 29.91 843 24.89 5.7 42.3 48 -4.4 24
14:25 1013 29.91 843 24.89 6 42.8 49 -4 24.9
14:30 1013 29.91 843 24.89 6.1 42.9 47 -4.3 24.3
14:35 1013 29.91 843 24.89 5.8 42.5 47 -4.5 24
14:40 1013 29.91 843 24.89 5.4 41.7 50 -4.3 24.3
14:45 1013 29.91 843 24.89 5 41 51 -4.4 24.1
14:50 1013 29.91 843 24.89 5.6 42.2 47 -4.8 23.4
14:55 1013 29.91 843 24.89 6.4 43.5 43 -5.2 22.6
15:00 1013 29.91 842 24.86 6.3 43.3 47 -4.1 24.7
15:05 1013 29.91 842 24.86 5.9 42.7 50 -3.7 25.3
15:10 1013 29.91 842 24.86 5.8 42.4 48 -4.4 24.1
15:15 1013 29.91 842 24.86 6.7 44.1 46 -4.2 24.4
15:20 1013 29.91 842 24.86 7.4 45.2 42 -4.6 23.6
15:25 1013 29.91 842 24.86 7.7 45.9 41 -4.8 23.4
15:30 1013 29.91 842 24.86 7.6 45.7 42 -4.6 23.7
15:35 1013 29.91 842 24.86 7.1 44.8 42 -5.1 22.9
15:40 1013 29.91 842 24.86 7.3 45.2 41 -5 23
15:45 1013 29.91 842 24.86 6.9 44.4 42 -5 22.9
15:50 1013 29.91 842 24.86 6.6 43.9 42 -5.2 22.6
15:55 1013 29.91 842 24.86 6.8 44.2 42 -5.2 22.6
16:00 1013 29.91 842 24.86 7.4 45.2 41 -5.2 22.7
16:05 1013 29.91 842 24.86 7.3 45.1 41 -5 23
16:10 1013 29.91 842 24.86 7.3 45.2 40 -5.5 22.2
16:15 1013 29.91 842 24.86 7.5 45.5 40 -5.3 22.5
16:20 1013 29.91 842 24.86 7.5 45.4 40 -5.4 22.3
16:25 1013 29.91 842 24.86 7.4 45.4 40 -5.3 22.5
16:30 1013 29.91 842 24.86 7.2 44.9 40 -5.5 22.1
16:35 1013 29.91 842 24.86 7.2 44.9 41 -5.3 22.4
16:40 1013 29.91 842 24.86 7.1 44.7 40 -5.5 22.1
16:45 1013 29.91 842 24.86 6.4 43.5 42 -5.5 22.1
16:50 1013 29.91 842 24.86 6.4 43.5 43 -5.4 22.3
16:55 1012 29.88 842 24.86 6.2 43.2 43 -5.5 22.1
17:00 1012 29.88 842 24.86 6.4 43.6 42 -5.5 22
17:05 1012 29.88 842 24.86 6.2 43.2 44 -5.1 22.9
17:10 1012 29.88 842 24.86 6.3 43.3 42 -5.7 21.8
17:15 1012 29.88 842 24.86 6.3 43.3 43 -5.5 22
17:20 1012 29.88 842 24.86 6.1 42.9 43 -5.5 22.1
17:25 1012 29.88 842 24.86 5.9 42.7 43 -5.6 22
17:30 1012 29.88 841 24.83 5.7 42.2 44 -5.5 22.1
17:35 1012 29.88 841 24.83 5.5 41.8 45 -5.5 22.1
17:40 1012 29.88 841 24.83 5.3 41.6 45 -5.6 22
17:45 1012 29.88 841 24.83 5.3 41.5 46 -5.6 22
17:50 1012 29.88 841 24.83 5.3 41.5 46 -5.3 22.5
17:55 1012 29.88 841 24.83 4.8 40.7 49 -4.9 23.1
18:00 1012 29.88 841 24.83 4.1 39.4 50 -5.3 22.5
18:05 1012 29.88 841 24.83 4 39.3 51 -5.3 22.5
18:10 1012 29.88 841 24.83 4 39.2 50 -5.4 22.3
18:15 1012 29.88 841 24.83 4.1 39.3 50 -5.4 22.4
18:20 1012 29.88 841 24.83 4.1 39.4 51 -5.1 22.9
18:25 1012 29.88 841 24.83 3.9 39 50 -5.6 21.9
18:30 1012 29.88 841 24.83 4.1 39.4 48 -6 21.1
18:35 1012 29.88 841 24.83 4.2 39.6 49 -5.6 22
18:40 1012 29.88 841 24.83 4 39.1 49 -5.9 21.4
18:45 1011 29.85 841 24.83 4 39.2 50 -5.5 22.2
18:50 1011 29.85 841 24.83 3.9 39.1 49 -5.9 21.4
18:55 1011 29.85 841 24.83 4 39.2 50 -5.4 22.2
19:00 1011 29.85 840 24.81 3.4 38 55 -4.8 23.4
19:05 1011 29.85 840 24.81 2.8 37 56 -5.2 22.7
19:10 1011 29.85 840 24.81 2.7 36.9 56 -5.2 22.6
19:15 1011 29.85 840 24.81 3 37.3 54 -5.5 22.1
19:20 1011 29.85 840 24.81 3.1 37.6 53 -5.7 21.8
19:25 1011 29.85 840 24.81 3.5 38.2 51 -5.7 21.8
19:30 1011 29.85 840 24.81 3.5 38.3 52 -5.4 22.4
19:35 1010 29.83 840 24.81 3.4 38.2 54 -5 23
19:40 1010 29.83 840 24.81 3.1 37.5 55 -5 23
19:45 1010 29.83 840 24.81 2.7 36.9 56 -5.2 22.6
19:50 1010 29.83 840 24.81 2.6 36.7 56 -5.4 22.3
19:55 1010 29.83 839 24.78 2.7 36.8 56 -5.2 22.7
20:00 1010 29.83 839 24.78 2.6 36.7 56 -5.3 22.5
20:05 1010 29.83 839 24.78 2.6 36.6 55 -5.5 22
20:10 1010 29.83 839 24.78 2.8 37 53 -5.9 21.4
20:15 1010 29.83 839 24.78 3.1 37.6 53 -5.6 21.9
20:20 1010 29.83 839 24.78 3 37.4 54 -5.4 22.2
20:25 1010 29.83 839 24.78 2.8 37.1 53 -5.8 21.6
20:30 1010 29.83 839 24.78 3 37.3 52 -5.9 21.4
20:35 1010 29.83 839 24.78 3.1 37.6 51 -6 21.2
20:40 1010 29.83 839 24.78 3.3 37.9 52 -5.6 21.9
20:45 1010 29.83 839 24.78 2.9 37.2 54 -5.4 22.2
20:50 1010 29.83 839 24.78 2.7 36.8 54 -5.8 21.6
20:55 1009 29.8 839 24.78 2.5 36.5 56 -5.4 22.2
21:00 1009 29.8 839 24.78 2.2 35.9 56 -5.6 21.9
21:05 1009 29.8 838 24.75 1.9 35.5 58 -5.5 22.1
21:10 1009 29.8 838 24.75 1.9 35.5 58 -5.5 22.1
21:15 1009 29.8 838 24.75 2 35.6 57 -5.6 21.9
21:20 1009 29.8 838 24.75 2.2 35.9 56 -5.6 21.9
21:25 1009 29.8 838 24.75 2.3 36.1 56 -5.5 22
21:30 1009 29.8 838 24.75 2.2 35.9 56 -5.7 21.8
21:35 1009 29.8 838 24.75 2.1 35.8 57 -5.4 22.2
21:40 1009 29.8 838 24.75 1.9 35.5 58 -5.5 22.1
21:45 1009 29.8 838 24.75 1.7 35.1 60 -5.3 22.4
21:50 1009 29.8 838 24.75 1.7 35 59 -5.5 22.1
21:55 1009 29.8 838 24.75 2 35.6 57 -5.7 21.7
22:00 1009 29.8 838 24.75 2.3 36.2 56 -5.6 21.8
22:05 1009 29.8 838 24.75 2.5 36.5 55 -5.7 21.7
22:10 1009 29.8 838 24.75 2.7 36.8 54 -5.8 21.6
22:15 1008 29.77 838 24.75 2.9 37.2 53 -5.7 21.7
22:20 1008 29.77 838 24.75 2.9 37.1 54 -5.7 21.8
22:25 1008 29.77 837 24.72 2.7 36.9 55 -5.5 22
22:30 1008 29.77 837 24.72 2.8 37 52 -6 21.2
22:35 1008 29.77 837 24.72 3.1 37.5 53 -5.6 21.9
22:40 1008 29.77 837 24.72 3 37.4 53 -5.7 21.7
22:45 1008 29.77 837 24.72 2.8 37.1 54 -5.6 21.9
22:50 1008 29.77 837 24.72 2.8 37 54 -5.5 22.1
22:55 1008 29.77 837 24.72 2.7 36.8 55 -5.6 22
23:00 1008 29.77 837 24.72 2.9 37.3 53 -5.8 21.5
23:05 1008 29.77 837 24.72 3.2 37.7 53 -5.5 22.2
23:10 1008 29.77 837 24.72 3 37.4 53 -5.6 22
23:15 1008 29.77 837 24.72 3.1 37.6 52 -5.9 21.4
23:20 1008 29.77 837 24.72 3.3 38 51 -5.8 21.6
23:25 1008 29.77 837 24.72 3.5 38.2 51 -5.7 21.7
23:30 1008 29.77 837 24.72 3.3 38 51 -5.9 21.4
23:35 1007 29.74 837 24.72 3.3 37.9 53 -5.5 22.1
23:40 1007 29.74 837 24.72 3 37.3 52 -5.9 21.5
23:45 1007 29.74 836 24.69 3.8 38.8 48 -6.4 20.5
23:50 1007 29.74 836 24.69 4.6 40.2 45 -6.4 20.5
23:55 1007 29.74 836 24.69 4.9 40.8 43 -6.6 20.1
24:00 1007 29.74 836 24.69 5.3 41.5 41 -7 19.4